KFNT/FNT METAR and TAF weather

Enter ICAO airport designator
Station Type Date Time Source
KFNT METAR 2019/08/18 08:53 UTC NOAA

KFNT 180853Z AUTO 18003KT 8SM CLR 19/18 A2989 RMK AO2 SLP116 T01940183 56015


Station Type Date Time Source
KFNT Decoded METAR 2019/08/18 08:53 UTC NOAA

Station name not available
Aug 18, 2019 - 04:53 AM EDT / 2019.08.18 0853 UTC
Wind: from the S (180 degrees) at 3 MPH (3 KT):0
Visibility: 8 mile(s):0
Sky conditions: clear
Temperature: 66.9 F (19.4 C)
Dew Point: 64.9 F (18.3 C)
Relative Humidity: 93%
Pressure (altimeter): 29.89 in. Hg (1012 hPa)
Pressure tendency: 0.04 inches (1.5 hPa) lower than three hours ago
ob: KFNT 180853Z AUTO 18003KT 8SM CLR 19/18 A2989 RMK AO2 SLP116 T01940183 56015
cycle: 9

Station Type Date Time Source
KFNT TAF 2019/08/18 06:28 UTC NOAA

TAF KFNT 180526Z 1806/1906 20004KT 6SM -SHRA VCTS SCT040CB BKN120
TEMPO 1806/1807 4SM -TSRA BKN030CB
FM180700 20004KT P6SM SCT040 BKN120
FM180900 20003KT 5SM BR BKN040
FM181300 20008KT P6SM SCT025 BKN050
FM182000 21011G18KT P6SM BKN040
TEMPO 1820/1824 2SM TSRA OVC025CB
FM190300 26008KT P6SM BKN020

Example: see airport list